ADDS METAR Data INFO
IDs: Format: Raw Decoded Include TAF

Data at: 1245 UTC 19 Oct 2017

KSGF 191152Z 16004KT 10SM CLR 10/08 A3016 RMK AO2 SLP210 T01000083 10139 20083 50007
KSGF 191052Z 16006KT 10SM CLR 10/08 A3016 RMK AO2 SLP209 T01000083
KSGF 190952Z 15007KT 10SM CLR 10/08 A3014 RMK AO2 SLP201 T01000078
KSGF 190852Z 15004KT 10SM CLR 09/07 A3014 RMK AO2 SLP200 T00890072 50013
KSGF 190752Z 00000KT 10SM CLR 12/08 A3014 RMK AO2 SLP199 T01220078
KSGF 190652Z 00000KT 10SM CLR 12/07 A3013 RMK AO2 SLP196 T01220072
KSGF 190552Z 17008KT 10SM CLR 13/08 A3010 RMK AO2 SLP186 T01330078 10183 20133 402500083 56003
KSGF 190452Z 16010KT 10SM CLR 15/07 A3010 RMK AO2 SLP186 T01500072
KSGF 190352Z 16010KT 10SM CLR 16/06 A3010 RMK AO2 SLP188 T01560061
KSGF 190252Z 17007KT 10SM CLR 14/06 A3011 RMK AO2 SLP191 T01390061 53010
KSGF 190152Z 17010KT 10SM CLR 17/06 A3009 RMK AO2 SLP185 T01670061
KSGF 190052Z 16009KT 10SM CLR 18/07 A3008 RMK AO2 SLP184 T01780072
KSGF 182352Z 17007KT 10SM CLR 18/07 A3008 RMK AO2 SLP182 T01830072 10250 20183 55003
KSGF 182252Z 17008KT 10SM CLR 23/07 A3007 RMK AO2 SLP179 T02280067
KSGF 182152Z 17007KT 10SM CLR 24/08 A3008 RMK AO2 SLP180 T02440078
KSGF 182052Z 19012KT 10SM CLR 24/06 A3008 RMK AO2 SLP182 T02390056 55015
KSGF 181952Z 19010G17KT 10SM CLR 25/07 A3008 RMK AO2 SLP179 T02500067
KSGF 181852Z 19012G19KT 10SM CLR 23/07 A3010 RMK AO2 SLP186 T02330072
KSGF 181752Z 19010KT 10SM CLR 22/07 A3013 RMK AO2 SLP197 T02170072 10217 20083 58014
KSGF 181652Z 20014KT 10SM CLR 20/06 A3015 RMK AO2 SLP205 T02000061
KSGF 181552Z 18011KT 10SM CLR 18/07 A3016 RMK AO2 SLP207 T01780067 $
KSGF 181452Z 16010KT 10SM CLR 16/06 A3017 RMK AO2 SLP214 T01560061 52009
KSGF 181352Z 17011KT 10SM CLR 12/06 A3016 RMK AO2 SLP213 T01170056
KSGF 181252Z 16010KT 10SM CLR 09/05 A3015 RMK AO2 SLP210 T00890050
KSGF 181152Z 15010KT 10SM CLR 08/05 A3014 RMK AO2 SLP206 T00830050 10100 20083 58002
KSGF 181052Z 15011KT 10SM CLR 08/05 A3015 RMK AO2 SLP207 T00830050
KSGF 180952Z 15012KT 10SM CLR 09/05 A3015 RMK AO2 SLP204 T00940050
KSGF 180852Z 16009KT 10SM CLR 08/04 A3015 RMK AO2 SLP205 T00830044 58004
KSGF 180752Z 16008KT 10SM CLR 09/04 A3016 RMK AO2 SLP209 T00940044
KSGF 180652Z 16008KT 10SM CLR 09/04 A3016 RMK AO2 SLP209 T00940044
KSGF 180552Z 16009KT 10SM CLR 10/05 A3016 RMK AO2 SLP210 T01000050 10167 20100 402170061 58001
KSGF 180452Z 16008KT 10SM CLR 11/04 A3017 RMK AO2 SLP212 T01110044
KSGF 180352Z 16008KT 10SM CLR 12/05 A3017 RMK AO2 SLP215 T01220050
KSGF 180252Z 16009KT 10SM CLR 13/05 A3017 RMK AO2 SLP213 T01280050 51004
KSGF 180152Z 15006KT 10SM CLR 12/05 A3016 RMK AO2 SLP214 T01220050
KSGF 180052Z 14006KT 10SM CLR 14/06 A3016 RMK AO2 SLP215 T01390056